sensor_id;sensor_type;location;lat;lon;timestamp;P1;durP1;ratioP1;P2;durP2;ratioP2
69795;SDS011;57073;45.650;9.612;2022-09-28T00:00:42;1.07;;;0.20;;
69795;SDS011;57073;45.650;9.612;2022-09-28T00:02:46;0.90;;;0.20;;
69795;SDS011;57073;45.650;9.612;2022-09-28T00:04:47;0.93;;;0.20;;
69795;SDS011;57073;45.650;9.612;2022-09-28T00:06:47;0.50;;;0.20;;
69795;SDS011;57073;45.650;9.612;2022-09-28T00:08:48;4.03;;;0.33;;
69795;SDS011;57073;45.650;9.612;2022-09-28T00:10:53;0.82;;;0.20;;
69795;SDS011;57073;45.650;9.612;2022-09-28T00:12:54;0.80;;;0.30;;
69795;SDS011;57073;45.650;9.612;2022-09-28T00:14:55;0.70;;;0.17;;
69795;SDS011;57073;45.650;9.612;2022-09-28T00:16:55;1.50;;;0.50;;
69795;SDS011;57073;45.650;9.612;2022-09-28T00:18:56;3.23;;;0.40;;
69795;SDS011;57073;45.650;9.612;2022-09-28T00:21:03;1.07;;;0.30;;
69795;SDS011;57073;45.650;9.612;2022-09-28T00:23:06;1.00;;;0.30;;
69795;SDS011;57073;45.650;9.612;2022-09-28T00:25:06;1.10;;;0.50;;
69795;SDS011;57073;45.650;9.612;2022-09-28T00:27:07;3.17;;;0.50;;
69795;SDS011;57073;45.650;9.612;2022-09-28T00:31:29;1.35;;;0.70;;
69795;SDS011;57073;45.650;9.612;2022-09-28T00:33:31;2.03;;;0.57;;
69795;SDS011;57073;45.650;9.612;2022-09-28T00:35:31;1.63;;;0.60;;
69795;SDS011;57073;45.650;9.612;2022-09-28T00:37:32;2.43;;;0.83;;
69795;SDS011;57073;45.650;9.612;2022-09-28T00:39:32;2.73;;;1.40;;
69795;SDS011;57073;45.650;9.612;2022-09-28T00:41:34;2.67;;;1.48;;
69795;SDS011;57073;45.650;9.612;2022-09-28T00:43:35;2.10;;;1.47;;
69795;SDS011;57073;45.650;9.612;2022-09-28T00:45:35;1.77;;;1.20;;
69795;SDS011;57073;45.650;9.612;2022-09-28T00:47:53;2.13;;;1.27;;
69795;SDS011;57073;45.650;9.612;2022-09-28T00:54:31;3.88;;;1.55;;
69795;SDS011;57073;45.650;9.612;2022-09-28T00:56:33;2.92;;;1.73;;
69795;SDS011;57073;45.650;9.612;2022-09-28T00:58:38;3.83;;;1.60;;
69795;SDS011;57073;45.650;9.612;2022-09-28T01:00:41;4.28;;;1.35;;
69795;SDS011;57073;45.650;9.612;2022-09-28T01:02:42;2.20;;;1.20;;
69795;SDS011;57073;45.650;9.612;2022-09-28T01:04:44;1.77;;;1.10;;
69795;SDS011;57073;45.650;9.612;2022-09-28T01:06:45;1.80;;;0.98;;
69795;SDS011;57073;45.650;9.612;2022-09-28T01:08:46;1.27;;;0.85;;
69795;SDS011;57073;45.650;9.612;2022-09-28T01:10:50;1.90;;;1.00;;
69795;SDS011;57073;45.650;9.612;2022-09-28T01:12:51;2.38;;;0.95;;
69795;SDS011;57073;45.650;9.612;2022-09-28T01:14:51;2.43;;;0.90;;
69795;SDS011;57073;45.650;9.612;2022-09-28T01:17:05;1.63;;;1.00;;
69795;SDS011;57073;45.650;9.612;2022-09-28T01:21:47;1.13;;;0.77;;
69795;SDS011;57073;45.650;9.612;2022-09-28T01:26:44;2.08;;;0.77;;
69795;SDS011;57073;45.650;9.612;2022-09-28T01:28:49;1.15;;;0.70;;
69795;SDS011;57073;45.650;9.612;2022-09-28T01:33:01;1.13;;;0.60;;
69795;SDS011;57073;45.650;9.612;2022-09-28T01:35:07;2.45;;;0.60;;
69795;SDS011;57073;45.650;9.612;2022-09-28T01:37:13;1.90;;;0.57;;
69795;SDS011;57073;45.650;9.612;2022-09-28T01:39:21;0.90;;;0.40;;
69795;SDS011;57073;45.650;9.612;2022-09-28T01:41:28;1.77;;;0.57;;
69795;SDS011;57073;45.650;9.612;2022-09-28T01:43:31;1.27;;;0.55;;
69795;SDS011;57073;45.650;9.612;2022-09-28T01:45:39;1.58;;;0.60;;
69795;SDS011;57073;45.650;9.612;2022-09-28T01:47:44;2.00;;;0.65;;
69795;SDS011;57073;45.650;9.612;2022-09-28T01:49:47;2.28;;;0.60;;
69795;SDS011;57073;45.650;9.612;2022-09-28T01:51:54;1.30;;;0.70;;
69795;SDS011;57073;45.650;9.612;2022-09-28T01:54:11;2.13;;;0.80;;
69795;SDS011;57073;45.650;9.612;2022-09-28T01:56:18;2.47;;;0.77;;
69795;SDS011;57073;45.650;9.612;2022-09-28T02:00:47;1.27;;;0.50;;
69795;SDS011;57073;45.650;9.612;2022-09-28T02:02:57;1.00;;;0.60;;
69795;SDS011;57073;45.650;9.612;2022-09-28T02:05:01;1.48;;;0.75;;
69795;SDS011;57073;45.650;9.612;2022-09-28T02:07:09;2.55;;;0.93;;
69795;SDS011;57073;45.650;9.612;2022-09-28T02:09:25;1.63;;;0.90;;
69795;SDS011;57073;45.650;9.612;2022-09-28T02:11:30;3.45;;;0.80;;
69795;SDS011;57073;45.650;9.612;2022-09-28T02:13:36;2.43;;;0.80;;
69795;SDS011;57073;45.650;9.612;2022-09-28T02:15:44;1.70;;;0.90;;
69795;SDS011;57073;45.650;9.612;2022-09-28T02:17:49;2.40;;;0.88;;
69795;SDS011;57073;45.650;9.612;2022-09-28T02:19:50;1.38;;;0.80;;
69795;SDS011;57073;45.650;9.612;2022-09-28T02:24:17;3.08;;;0.70;;
69795;SDS011;57073;45.650;9.612;2022-09-28T02:26:24;2.78;;;1.00;;
69795;SDS011;57073;45.650;9.612;2022-09-28T02:28:29;3.07;;;1.33;;
69795;SDS011;57073;45.650;9.612;2022-09-28T02:30:30;6.28;;;2.92;;
69795;SDS011;57073;45.650;9.612;2022-09-28T02:32:32;7.57;;;3.65;;
69795;SDS011;57073;45.650;9.612;2022-09-28T02:34:39;7.77;;;3.47;;
69795;SDS011;57073;45.650;9.612;2022-09-28T02:36:39;5.70;;;2.75;;
69795;SDS011;57073;45.650;9.612;2022-09-28T02:38:40;4.17;;;2.10;;
69795;SDS011;57073;45.650;9.612;2022-09-28T02:40:41;4.10;;;1.97;;
69795;SDS011;57073;45.650;9.612;2022-09-28T02:45:21;2.50;;;1.77;;
69795;SDS011;57073;45.650;9.612;2022-09-28T02:57:23;4.70;;;2.00;;
69795;SDS011;57073;45.650;9.612;2022-09-28T03:04:29;5.13;;;2.20;;
69795;SDS011;57073;45.650;9.612;2022-09-28T03:09:08;3.17;;;1.75;;
69795;SDS011;57073;45.650;9.612;2022-09-28T03:12:15;3.60;;;2.00;;
69795;SDS011;57073;45.650;9.612;2022-09-28T03:14:00;4.30;;;2.60;;
69795;SDS011;57073;45.650;9.612;2022-09-28T03:16:12;3.97;;;1.70;;
69795;SDS011;57073;45.650;9.612;2022-09-28T03:18:14;3.53;;;1.80;;
69795;SDS011;57073;45.650;9.612;2022-09-28T03:20:15;3.55;;;2.03;;
69795;SDS011;57073;45.650;9.612;2022-09-28T03:22:16;3.10;;;1.88;;
69795;SDS011;57073;45.650;9.612;2022-09-28T03:24:17;2.50;;;1.90;;
69795;SDS011;57073;45.650;9.612;2022-09-28T03:26:17;4.77;;;1.90;;
69795;SDS011;57073;45.650;9.612;2022-09-28T03:28:18;4.13;;;2.28;;
69795;SDS011;57073;45.650;9.612;2022-09-28T03:30:20;3.28;;;1.90;;
69795;SDS011;57073;45.650;9.612;2022-09-28T03:32:21;3.10;;;1.60;;
69795;SDS011;57073;45.650;9.612;2022-09-28T03:34:21;3.00;;;1.75;;
69795;SDS011;57073;45.650;9.612;2022-09-28T03:36:22;3.33;;;1.80;;
69795;SDS011;57073;45.650;9.612;2022-09-28T03:38:22;3.13;;;1.87;;
69795;SDS011;57073;45.650;9.612;2022-09-28T03:40:23;4.63;;;2.00;;
69795;SDS011;57073;45.650;9.612;2022-09-28T03:42:23;3.00;;;1.70;;
69795;SDS011;57073;45.650;9.612;2022-09-28T03:44:24;4.95;;;2.00;;
69795;SDS011;57073;45.650;9.612;2022-09-28T03:46:24;3.03;;;1.97;;
69795;SDS011;57073;45.650;9.612;2022-09-28T03:48:34;3.40;;;2.07;;
69795;SDS011;57073;45.650;9.612;2022-09-28T03:50:35;3.78;;;2.15;;
69795;SDS011;57073;45.650;9.612;2022-09-28T03:52:35;4.40;;;2.30;;
69795;SDS011;57073;45.650;9.612;2022-09-28T03:54:36;4.03;;;2.70;;
69795;SDS011;57073;45.650;9.612;2022-09-28T03:56:36;4.75;;;2.47;;
69795;SDS011;57073;45.650;9.612;2022-09-28T03:58:37;3.60;;;2.37;;
69795;SDS011;57073;45.650;9.612;2022-09-28T04:00:37;3.67;;;2.37;;
69795;SDS011;57073;45.650;9.612;2022-09-28T04:02:37;3.03;;;2.13;;
69795;SDS011;57073;45.650;9.612;2022-09-28T04:04:38;4.78;;;2.42;;
69795;SDS011;57073;45.650;9.612;2022-09-28T04:06:38;5.30;;;2.90;;
69795;SDS011;57073;45.650;9.612;2022-09-28T04:08:39;5.17;;;2.60;;
69795;SDS011;57073;45.650;9.612;2022-09-28T04:10:39;7.60;;;2.70;;
69795;SDS011;57073;45.650;9.612;2022-09-28T04:12:39;5.28;;;2.90;;
69795;SDS011;57073;45.650;9.612;2022-09-28T04:14:40;7.07;;;2.60;;
69795;SDS011;57073;45.650;9.612;2022-09-28T04:16:40;4.37;;;2.77;;
69795;SDS011;57073;45.650;9.612;2022-09-28T04:18:41;6.10;;;3.30;;
69795;SDS011;57073;45.650;9.612;2022-09-28T04:20:41;7.80;;;3.63;;
69795;SDS011;57073;45.650;9.612;2022-09-28T04:22:45;8.45;;;3.47;;
69795;SDS011;57073;45.650;9.612;2022-09-28T04:24:45;5.33;;;3.07;;
69795;SDS011;57073;45.650;9.612;2022-09-28T04:26:45;5.10;;;3.33;;
69795;SDS011;57073;45.650;9.612;2022-09-28T04:28:46;5.80;;;3.43;;
69795;SDS011;57073;45.650;9.612;2022-09-28T04:31:09;5.05;;;3.28;;
69795;SDS011;57073;45.650;9.612;2022-09-28T04:33:11;4.87;;;3.30;;
69795;SDS011;57073;45.650;9.612;2022-09-28T04:35:11;5.93;;;3.30;;
69795;SDS011;57073;45.650;9.612;2022-09-28T04:37:12;5.37;;;3.10;;
69795;SDS011;57073;45.650;9.612;2022-09-28T04:39:14;4.65;;;2.60;;
69795;SDS011;57073;45.650;9.612;2022-09-28T04:41:16;4.10;;;2.55;;
69795;SDS011;57073;45.650;9.612;2022-09-28T04:43:16;7.10;;;3.00;;
69795;SDS011;57073;45.650;9.612;2022-09-28T04:45:17;6.23;;;2.80;;
69795;SDS011;57073;45.650;9.612;2022-09-28T04:47:18;6.78;;;2.53;;
69795;SDS011;57073;45.650;9.612;2022-09-28T04:49:18;3.93;;;2.33;;
69795;SDS011;57073;45.650;9.612;2022-09-28T04:51:18;8.90;;;2.83;;
69795;SDS011;57073;45.650;9.612;2022-09-28T04:53:19;3.93;;;2.83;;
69795;SDS011;57073;45.650;9.612;2022-09-28T04:55:19;5.93;;;2.90;;
69795;SDS011;57073;45.650;9.612;2022-09-28T04:57:20;5.20;;;2.63;;
69795;SDS011;57073;45.650;9.612;2022-09-28T04:59:20;3.60;;;2.30;;
69795;SDS011;57073;45.650;9.612;2022-09-28T05:01:21;4.50;;;2.30;;
69795;SDS011;57073;45.650;9.612;2022-09-28T05:03:23;6.97;;;2.58;;
69795;SDS011;57073;45.650;9.612;2022-09-28T05:05:23;5.20;;;2.37;;
69795;SDS011;57073;45.650;9.612;2022-09-28T05:07:24;4.77;;;2.50;;
69795;SDS011;57073;45.650;9.612;2022-09-28T05:09:25;4.85;;;2.50;;
69795;SDS011;57073;45.650;9.612;2022-09-28T05:11:26;6.50;;;2.63;;
69795;SDS011;57073;45.650;9.612;2022-09-28T05:13:26;4.43;;;3.00;;
69795;SDS011;57073;45.650;9.612;2022-09-28T05:15:27;4.95;;;2.90;;
69795;SDS011;57073;45.650;9.612;2022-09-28T05:17:28;6.40;;;2.70;;
69795;SDS011;57073;45.650;9.612;2022-09-28T05:19:28;5.53;;;2.70;;
69795;SDS011;57073;45.650;9.612;2022-09-28T05:21:29;6.13;;;3.10;;
69795;SDS011;57073;45.650;9.612;2022-09-28T05:23:30;5.40;;;3.10;;
69795;SDS011;57073;45.650;9.612;2022-09-28T05:25:30;6.40;;;3.08;;
69795;SDS011;57073;45.650;9.612;2022-09-28T05:27:30;4.43;;;2.23;;
69795;SDS011;57073;45.650;9.612;2022-09-28T05:29:31;6.90;;;2.60;;
69795;SDS011;57073;45.650;9.612;2022-09-28T05:31:31;3.97;;;2.70;;
69795;SDS011;57073;45.650;9.612;2022-09-28T05:33:32;5.17;;;2.93;;
69795;SDS011;57073;45.650;9.612;2022-09-28T05:40:25;5.83;;;3.23;;
69795;SDS011;57073;45.650;9.612;2022-09-28T05:42:26;5.65;;;3.45;;
69795;SDS011;57073;45.650;9.612;2022-09-28T05:44:26;5.17;;;3.23;;
69795;SDS011;57073;45.650;9.612;2022-09-28T05:46:27;5.33;;;3.40;;
69795;SDS011;57073;45.650;9.612;2022-09-28T05:48:27;6.45;;;3.17;;
69795;SDS011;57073;45.650;9.612;2022-09-28T05:50:28;7.77;;;3.23;;
69795;SDS011;57073;45.650;9.612;2022-09-28T05:52:29;9.25;;;3.58;;
69795;SDS011;57073;45.650;9.612;2022-09-28T05:54:29;7.20;;;3.37;;
69795;SDS011;57073;45.650;9.612;2022-09-28T05:56:30;8.47;;;3.80;;
69795;SDS011;57073;45.650;9.612;2022-09-28T05:58:30;7.22;;;3.28;;
69795;SDS011;57073;45.650;9.612;2022-09-28T06:00:31;8.00;;;3.73;;
69795;SDS011;57073;45.650;9.612;2022-09-28T06:02:32;7.28;;;3.50;;
69795;SDS011;57073;45.650;9.612;2022-09-28T06:04:32;5.27;;;3.60;;
69795;SDS011;57073;45.650;9.612;2022-09-28T06:06:33;9.97;;;4.13;;
69795;SDS011;57073;45.650;9.612;2022-09-28T06:08:34;5.90;;;3.40;;
69795;SDS011;57073;45.650;9.612;2022-09-28T06:10:35;5.43;;;3.20;;
69795;SDS011;57073;45.650;9.612;2022-09-28T06:12:35;6.67;;;3.53;;
69795;SDS011;57073;45.650;9.612;2022-09-28T06:14:35;7.13;;;3.20;;
69795;SDS011;57073;45.650;9.612;2022-09-28T06:16:36;5.73;;;2.90;;
69795;SDS011;57073;45.650;9.612;2022-09-28T06:18:36;8.68;;;3.40;;
69795;SDS011;57073;45.650;9.612;2022-09-28T06:20:38;7.77;;;3.60;;
69795;SDS011;57073;45.650;9.612;2022-09-28T06:22:41;6.22;;;3.38;;
69795;SDS011;57073;45.650;9.612;2022-09-28T06:24:42;6.70;;;3.57;;
69795;SDS011;57073;45.650;9.612;2022-09-28T06:26:42;6.63;;;3.57;;
69795;SDS011;57073;45.650;9.612;2022-09-28T06:28:43;7.80;;;3.25;;
69795;SDS011;57073;45.650;9.612;2022-09-28T06:30:43;6.17;;;3.30;;
69795;SDS011;57073;45.650;9.612;2022-09-28T06:32:44;8.00;;;3.50;;
69795;SDS011;57073;45.650;9.612;2022-09-28T06:34:44;7.00;;;2.97;;
69795;SDS011;57073;45.650;9.612;2022-09-28T06:36:44;7.70;;;2.90;;
69795;SDS011;57073;45.650;9.612;2022-09-28T06:38:45;6.40;;;2.80;;
69795;SDS011;57073;45.650;9.612;2022-09-28T06:40:46;6.93;;;3.25;;
69795;SDS011;57073;45.650;9.612;2022-09-28T06:42:56;6.93;;;3.30;;
69795;SDS011;57073;45.650;9.612;2022-09-28T06:44:58;6.43;;;3.10;;
69795;SDS011;57073;45.650;9.612;2022-09-28T06:46:58;12.70;;;3.90;;
69795;SDS011;57073;45.650;9.612;2022-09-28T06:49:00;7.32;;;3.47;;
69795;SDS011;57073;45.650;9.612;2022-09-28T06:51:02;8.15;;;3.20;;
69795;SDS011;57073;45.650;9.612;2022-09-28T06:53:03;7.55;;;3.60;;
69795;SDS011;57073;45.650;9.612;2022-09-28T06:55:05;7.70;;;3.43;;
69795;SDS011;57073;45.650;9.612;2022-09-28T06:57:06;8.23;;;3.95;;
69795;SDS011;57073;45.650;9.612;2022-09-28T06:59:07;11.77;;;3.50;;
69795;SDS011;57073;45.650;9.612;2022-09-28T07:01:07;8.60;;;3.47;;
69795;SDS011;57073;45.650;9.612;2022-09-28T07:03:14;6.87;;;3.50;;
69795;SDS011;57073;45.650;9.612;2022-09-28T07:05:17;7.78;;;3.38;;
69795;SDS011;57073;45.650;9.612;2022-09-28T07:07:18;12.00;;;4.05;;
69795;SDS011;57073;45.650;9.612;2022-09-28T07:09:19;6.93;;;3.60;;
69795;SDS011;57073;45.650;9.612;2022-09-28T07:11:19;8.47;;;4.00;;
69795;SDS011;57073;45.650;9.612;2022-09-28T07:13:21;5.72;;;3.53;;
69795;SDS011;57073;45.650;9.612;2022-09-28T07:15:23;5.97;;;3.37;;
69795;SDS011;57073;45.650;9.612;2022-09-28T07:17:23;6.55;;;3.50;;
69795;SDS011;57073;45.650;9.612;2022-09-28T07:19:24;6.97;;;3.90;;
69795;SDS011;57073;45.650;9.612;2022-09-28T07:21:24;8.05;;;3.92;;
69795;SDS011;57073;45.650;9.612;2022-09-28T07:23:25;7.17;;;3.37;;
69795;SDS011;57073;45.650;9.612;2022-09-28T07:25:28;7.95;;;3.42;;
69795;SDS011;57073;45.650;9.612;2022-09-28T07:27:30;7.13;;;3.67;;
69795;SDS011;57073;45.650;9.612;2022-09-28T07:29:30;7.10;;;3.50;;
69795;SDS011;57073;45.650;9.612;2022-09-28T07:31:31;7.03;;;3.30;;
69795;SDS011;57073;45.650;9.612;2022-09-28T07:33:32;8.52;;;3.80;;
69795;SDS011;57073;45.650;9.612;2022-09-28T07:35:33;5.80;;;3.50;;
69795;SDS011;57073;45.650;9.612;2022-09-28T07:37:34;9.10;;;3.90;;
69795;SDS011;57073;45.650;9.612;2022-09-28T07:39:35;6.40;;;3.10;;
69795;SDS011;57073;45.650;9.612;2022-09-28T07:41:55;15.77;;;4.18;;
69795;SDS011;57073;45.650;9.612;2022-09-28T07:43:56;18.27;;;4.27;;
69795;SDS011;57073;45.650;9.612;2022-09-28T07:45:58;14.10;;;3.85;;
69795;SDS011;57073;45.650;9.612;2022-09-28T07:47:58;9.00;;;3.50;;
69795;SDS011;57073;45.650;9.612;2022-09-28T07:49:59;8.65;;;3.83;;
69795;SDS011;57073;45.650;9.612;2022-09-28T07:51:59;7.67;;;3.40;;
69795;SDS011;57073;45.650;9.612;2022-09-28T07:54:00;4.70;;;3.00;;
69795;SDS011;57073;45.650;9.612;2022-09-28T07:56:01;6.22;;;3.40;;
69795;SDS011;57073;45.650;9.612;2022-09-28T07:58:06;5.75;;;3.22;;
69795;SDS011;57073;45.650;9.612;2022-09-28T08:00:06;9.37;;;3.80;;
69795;SDS011;57073;45.650;9.612;2022-09-28T08:02:08;6.15;;;3.20;;
69795;SDS011;57073;45.650;9.612;2022-09-28T08:04:10;7.97;;;3.90;;
69795;SDS011;57073;45.650;9.612;2022-09-28T08:06:11;8.88;;;3.28;;
69795;SDS011;57073;45.650;9.612;2022-09-28T08:08:13;7.05;;;3.30;;
69795;SDS011;57073;45.650;9.612;2022-09-28T08:10:14;6.00;;;3.47;;
69795;SDS011;57073;45.650;9.612;2022-09-28T08:12:16;10.15;;;3.80;;
69795;SDS011;57073;45.650;9.612;2022-09-28T08:14:18;8.25;;;4.28;;
69795;SDS011;57073;45.650;9.612;2022-09-28T08:16:19;9.43;;;4.10;;
69795;SDS011;57073;45.650;9.612;2022-09-28T08:18:19;9.82;;;4.15;;
69795;SDS011;57073;45.650;9.612;2022-09-28T08:20:20;7.33;;;3.57;;
69795;SDS011;57073;45.650;9.612;2022-09-28T08:22:39;9.90;;;3.97;;
69795;SDS011;57073;45.650;9.612;2022-09-28T08:24:40;9.40;;;4.00;;
69795;SDS011;57073;45.650;9.612;2022-09-28T08:26:40;9.05;;;5.65;;
69795;SDS011;57073;45.650;9.612;2022-09-28T08:28:42;9.33;;;5.70;;
69795;SDS011;57073;45.650;9.612;2022-09-28T08:30:44;9.40;;;5.70;;
69795;SDS011;57073;45.650;9.612;2022-09-28T08:32:45;11.00;;;5.50;;
69795;SDS011;57073;45.650;9.612;2022-09-28T08:34:48;8.32;;;5.35;;
69795;SDS011;57073;45.650;9.612;2022-09-28T08:36:48;12.90;;;5.83;;
69795;SDS011;57073;45.650;9.612;2022-09-28T08:38:49;7.68;;;5.03;;
69795;SDS011;57073;45.650;9.612;2022-09-28T08:42:57;8.55;;;5.28;;
69795;SDS011;57073;45.650;9.612;2022-09-28T08:45:23;8.63;;;4.63;;
69795;SDS011;57073;45.650;9.612;2022-09-28T08:47:27;9.32;;;5.22;;
69795;SDS011;57073;45.650;9.612;2022-09-28T08:49:51;9.73;;;5.80;;
69795;SDS011;57073;45.650;9.612;2022-09-28T08:54:11;9.88;;;4.78;;
69795;SDS011;57073;45.650;9.612;2022-09-28T08:56:26;7.93;;;4.15;;
69795;SDS011;57073;45.650;9.612;2022-09-28T08:58:31;5.50;;;3.80;;
69795;SDS011;57073;45.650;9.612;2022-09-28T09:00:46;6.20;;;3.97;;
69795;SDS011;57073;45.650;9.612;2022-09-28T09:02:49;7.68;;;3.95;;
69795;SDS011;57073;45.650;9.612;2022-09-28T09:04:49;6.50;;;4.30;;
69795;SDS011;57073;45.650;9.612;2022-09-28T09:16:31;7.53;;;3.63;;
69795;SDS011;57073;45.650;9.612;2022-09-28T09:18:35;6.03;;;3.83;;
69795;SDS011;57073;45.650;9.612;2022-09-28T09:20:58;8.90;;;3.78;;
69795;SDS011;57073;45.650;9.612;2022-09-28T09:23:09;7.97;;;3.95;;
69795;SDS011;57073;45.650;9.612;2022-09-28T09:45:42;5.90;;;3.83;;
69795;SDS011;57073;45.650;9.612;2022-09-28T09:48:08;8.55;;;3.88;;
69795;SDS011;57073;45.650;9.612;2022-09-28T09:50:25;6.25;;;3.53;;
69795;SDS011;57073;45.650;9.612;2022-09-28T09:52:33;4.97;;;3.80;;
69795;SDS011;57073;45.650;9.612;2022-09-28T09:55:04;6.78;;;3.70;;
69795;SDS011;57073;45.650;9.612;2022-09-28T09:57:14;7.25;;;3.65;;
69795;SDS011;57073;45.650;9.612;2022-09-28T09:59:23;8.23;;;4.10;;
69795;SDS011;57073;45.650;9.612;2022-09-28T10:01:36;8.20;;;4.13;;
69795;SDS011;57073;45.650;9.612;2022-09-28T10:03:40;6.47;;;4.20;;
69795;SDS011;57073;45.650;9.612;2022-09-28T10:05:43;6.60;;;4.18;;
69795;SDS011;57073;45.650;9.612;2022-09-28T10:09:57;8.00;;;4.18;;
69795;SDS011;57073;45.650;9.612;2022-09-28T10:12:01;7.15;;;4.90;;
69795;SDS011;57073;45.650;9.612;2022-09-28T10:14:02;6.47;;;4.67;;
69795;SDS011;57073;45.650;9.612;2022-09-28T10:16:04;8.82;;;4.70;;
69795;SDS011;57073;45.650;9.612;2022-09-28T10:18:06;14.70;;;5.10;;
69795;SDS011;57073;45.650;9.612;2022-09-28T10:20:12;7.15;;;4.70;;
69795;SDS011;57073;45.650;9.612;2022-09-28T10:22:16;9.00;;;4.97;;
69795;SDS011;57073;45.650;9.612;2022-09-28T10:26:55;9.90;;;5.13;;
69795;SDS011;57073;45.650;9.612;2022-09-28T10:29:04;8.57;;;4.87;;
69795;SDS011;57073;45.650;9.612;2022-09-28T10:31:34;10.65;;;4.93;;
69795;SDS011;57073;45.650;9.612;2022-09-28T10:34:02;7.85;;;5.13;;
69795;SDS011;57073;45.650;9.612;2022-09-28T10:36:05;10.80;;;5.57;;
69795;SDS011;57073;45.650;9.612;2022-09-28T10:38:06;9.57;;;5.63;;
69795;SDS011;57073;45.650;9.612;2022-09-28T10:40:25;10.60;;;5.63;;
69795;SDS011;57073;45.650;9.612;2022-09-28T10:42:35;9.45;;;5.82;;
69795;SDS011;57073;45.650;9.612;2022-09-28T10:44:58;7.43;;;5.30;;
69795;SDS011;57073;45.650;9.612;2022-09-28T10:47:04;8.68;;;5.72;;
69795;SDS011;57073;45.650;9.612;2022-09-28T10:49:13;9.52;;;6.20;;
69795;SDS011;57073;45.650;9.612;2022-09-28T10:51:16;9.27;;;5.63;;
69795;SDS011;57073;45.650;9.612;2022-09-28T10:53:18;8.75;;;5.75;;
69795;SDS011;57073;45.650;9.612;2022-09-28T10:59:38;8.02;;;5.57;;
69795;SDS011;57073;45.650;9.612;2022-09-28T11:01:41;7.80;;;5.60;;
69795;SDS011;57073;45.650;9.612;2022-09-28T11:03:49;9.80;;;6.18;;
69795;SDS011;57073;45.650;9.612;2022-09-28T11:06:04;10.70;;;5.82;;
69795;SDS011;57073;45.650;9.612;2022-09-28T11:08:06;12.88;;;6.30;;
69795;SDS011;57073;45.650;9.612;2022-09-28T11:10:19;11.32;;;6.15;;
69795;SDS011;57073;45.650;9.612;2022-09-28T11:12:33;10.97;;;6.53;;
69795;SDS011;57073;45.650;9.612;2022-09-28T11:14:42;9.55;;;6.10;;
69795;SDS011;57073;45.650;9.612;2022-09-28T11:16:43;10.85;;;6.15;;
69795;SDS011;57073;45.650;9.612;2022-09-28T11:18:44;9.57;;;6.03;;
69795;SDS011;57073;45.650;9.612;2022-09-28T11:20:44;13.70;;;6.88;;
69795;SDS011;57073;45.650;9.612;2022-09-28T11:22:45;10.33;;;6.60;;
69795;SDS011;57073;45.650;9.612;2022-09-28T11:24:47;10.15;;;6.50;;
69795;SDS011;57073;45.650;9.612;2022-09-28T11:26:49;14.23;;;7.03;;
69795;SDS011;57073;45.650;9.612;2022-09-28T11:28:55;16.63;;;6.65;;
69795;SDS011;57073;45.650;9.612;2022-09-28T11:30:56;14.70;;;6.83;;
69795;SDS011;57073;45.650;9.612;2022-09-28T11:32:59;11.98;;;6.47;;
69795;SDS011;57073;45.650;9.612;2022-09-28T11:35:03;12.70;;;6.90;;
69795;SDS011;57073;45.650;9.612;2022-09-28T11:39:33;10.43;;;6.88;;
69795;SDS011;57073;45.650;9.612;2022-09-28T11:48:51;11.40;;;6.45;;
69795;SDS011;57073;45.650;9.612;2022-09-28T11:51:28;13.15;;;7.53;;
69795;SDS011;57073;45.650;9.612;2022-09-28T11:54:08;10.77;;;6.68;;
69795;SDS011;57073;45.650;9.612;2022-09-28T11:58:10;13.20;;;7.00;;
69795;SDS011;57073;45.650;9.612;2022-09-28T12:00:20;9.95;;;7.13;;
69795;SDS011;57073;45.650;9.612;2022-09-28T12:02:32;10.35;;;7.20;;
69795;SDS011;57073;45.650;9.612;2022-09-28T12:06:56;13.98;;;8.02;;
69795;SDS011;57073;45.650;9.612;2022-09-28T12:09:09;10.23;;;5.77;;
69795;SDS011;57073;45.650;9.612;2022-09-28T12:11:35;12.93;;;5.82;;
69795;SDS011;57073;45.650;9.612;2022-09-28T12:13:43;11.70;;;5.60;;
69795;SDS011;57073;45.650;9.612;2022-09-28T12:18:02;11.07;;;6.10;;
69795;SDS011;57073;45.650;9.612;2022-09-28T12:20:15;9.80;;;6.27;;
69795;SDS011;57073;45.650;9.612;2022-09-28T12:22:29;10.98;;;6.22;;
69795;SDS011;57073;45.650;9.612;2022-09-28T12:24:41;10.13;;;6.70;;
69795;SDS011;57073;45.650;9.612;2022-09-28T12:26:51;10.73;;;6.95;;
69795;SDS011;57073;45.650;9.612;2022-09-28T12:29:00;9.38;;;6.53;;
69795;SDS011;57073;45.650;9.612;2022-09-28T12:31:08;12.83;;;6.23;;
69795;SDS011;57073;45.650;9.612;2022-09-28T12:33:15;11.60;;;6.10;;
69795;SDS011;57073;45.650;9.612;2022-09-28T12:35:23;9.43;;;5.60;;
69795;SDS011;57073;45.650;9.612;2022-09-28T12:37:49;9.48;;;6.10;;
69795;SDS011;57073;45.650;9.612;2022-09-28T12:42:27;11.43;;;6.07;;
69795;SDS011;57073;45.650;9.612;2022-09-28T12:51:46;11.18;;;6.47;;
69795;SDS011;57073;45.650;9.612;2022-09-28T13:09:05;15.95;;;7.03;;
69795;SDS011;57073;45.650;9.612;2022-09-28T13:18:05;8.97;;;6.17;;
69795;SDS011;57073;45.650;9.612;2022-09-28T13:25:03;12.50;;;7.03;;
69795;SDS011;57073;45.650;9.612;2022-09-28T13:27:12;14.60;;;7.28;;
69795;SDS011;57073;45.650;9.612;2022-09-28T13:29:18;11.67;;;7.33;;
69795;SDS011;57073;45.650;9.612;2022-09-28T13:31:22;13.23;;;7.35;;
69795;SDS011;57073;45.650;9.612;2022-09-28T13:33:32;13.00;;;6.70;;
69795;SDS011;57073;45.650;9.612;2022-09-28T13:35:39;16.30;;;7.07;;
69795;SDS011;57073;45.650;9.612;2022-09-28T13:37:41;13.02;;;7.10;;
69795;SDS011;57073;45.650;9.612;2022-09-28T13:41:51;9.60;;;6.50;;
69795;SDS011;57073;45.650;9.612;2022-09-28T13:48:43;10.52;;;6.10;;
69795;SDS011;57073;45.650;9.612;2022-09-28T13:55:28;8.83;;;5.53;;
69795;SDS011;57073;45.650;9.612;2022-09-28T14:02:34;11.13;;;5.88;;
69795;SDS011;57073;45.650;9.612;2022-09-28T14:04:56;13.57;;;6.30;;
69795;SDS011;57073;45.650;9.612;2022-09-28T14:07:09;12.43;;;5.90;;
69795;SDS011;57073;45.650;9.612;2022-09-28T14:09:22;11.25;;;6.13;;
69795;SDS011;57073;45.650;9.612;2022-09-28T14:14:00;11.57;;;5.90;;
69795;SDS011;57073;45.650;9.612;2022-09-28T14:20:24;8.60;;;5.68;;
69795;SDS011;57073;45.650;9.612;2022-09-28T14:27:01;10.25;;;5.40;;
69795;SDS011;57073;45.650;9.612;2022-09-28T14:29:13;11.95;;;6.15;;
69795;SDS011;57073;45.650;9.612;2022-09-28T14:31:21;12.30;;;5.47;;
69795;SDS011;57073;45.650;9.612;2022-09-28T14:33:26;10.50;;;5.97;;
69795;SDS011;57073;45.650;9.612;2022-09-28T14:35:30;8.27;;;5.18;;
69795;SDS011;57073;45.650;9.612;2022-09-28T14:37:45;9.38;;;5.45;;
69795;SDS011;57073;45.650;9.612;2022-09-28T14:40:08;8.68;;;5.18;;
69795;SDS011;57073;45.650;9.612;2022-09-28T14:45:33;7.70;;;4.60;;
69795;SDS011;57073;45.650;9.612;2022-09-28T14:47:36;8.30;;;4.47;;
69795;SDS011;57073;45.650;9.612;2022-09-28T14:49:43;9.25;;;5.00;;
69795;SDS011;57073;45.650;9.612;2022-09-28T14:53:53;10.80;;;5.25;;
69795;SDS011;57073;45.650;9.612;2022-09-28T14:56:18;8.87;;;4.70;;
69795;SDS011;57073;45.650;9.612;2022-09-28T14:58:25;10.02;;;4.88;;
69795;SDS011;57073;45.650;9.612;2022-09-28T15:00:28;9.68;;;4.70;;
69795;SDS011;57073;45.650;9.612;2022-09-28T15:02:31;7.53;;;4.35;;
69795;SDS011;57073;45.650;9.612;2022-09-28T15:04:42;9.18;;;4.57;;
69795;SDS011;57073;45.650;9.612;2022-09-28T15:06:50;10.70;;;4.80;;
69795;SDS011;57073;45.650;9.612;2022-09-28T15:08:50;8.98;;;4.43;;
69795;SDS011;57073;45.650;9.612;2022-09-28T15:10:51;10.05;;;4.47;;
69795;SDS011;57073;45.650;9.612;2022-09-28T15:12:52;11.23;;;4.50;;
69795;SDS011;57073;45.650;9.612;2022-09-28T15:14:58;6.85;;;4.45;;
69795;SDS011;57073;45.650;9.612;2022-09-28T15:17:07;11.13;;;5.47;;
69795;SDS011;57073;45.650;9.612;2022-09-28T15:19:22;9.38;;;5.30;;
69795;SDS011;57073;45.650;9.612;2022-09-28T15:21:36;8.50;;;4.95;;
69795;SDS011;57073;45.650;9.612;2022-09-28T15:23:41;9.33;;;4.47;;